メインページ
METAR-TAF:

METAR-TAF

空港 :

ウィニペグ, マニトバ州, カナダ

ウィニペグ・ジェームス・アームストロング・リチャードソン国際空港

緯度: 49-54N, 経度: 097-14W, 海抜: 239m

現時点の気象観測

当レポートは44分前の19:00(UTC)に作成
の風 24kt、最大33ktの突風を伴う
気温 3°C
湿度 81%
気圧 1019 hPa
視程: 24.1km
高度2500ftの雲はほとんどない
高度12000ftの雲は散在している
高度24000ftの曇り

METAR: CYWG 251900Z 18024G33KT 15SM FEW025 SCT120 OVC240 03/M00 A3008 RMK SC1AC3CI4 SLP201

時間: 14:44 (19:44 UTC)

予報

当レポートは2時間6分前の17:38(UTC)に作成
予報は25日の 18時(UTC)から 26日の 18時(UTC)まで有効
の風 25kt、最大35ktの突風を伴う
視程: 10km
高度2000ftの雲は散在している
高度14000ftの千切れ雲あり
25日の 18時(UTC)から 25日の 22時(UTC)まで一時的に
視程: 10km
高度2000ftの千切れ雲あり
高度14000ftの曇り
弱いにわか雨
25日の 2200時(UTC)から
の風 18kt、最大28ktの突風を伴う
視程: 10km
高度1200ftの雲は散在している
高度16000ftの千切れ雲あり
26日の 0000時(UTC)から
の風 18kt
視程: 10km
高度12000ftの千切れ雲あり
26日の 04時(UTC)から 26日の 06時(UTC)まで徐々に
の風 12kt
26日の 1100時(UTC)から
の風 8kt
視程: 10km
高度14000ftの千切れ雲あり
26日の 16時(UTC)から 26日の 18時(UTC)まで徐々に
北/北西の風 8kt
高度14000ftの雲は散在している

TAF: CYWG 251738Z 2518/2618 18025G35KT P6SM SCT020 BKN140 TEMPO 2518/2522 P6SM -SHRA BKN020 OVC140 FM252200 18018G28KT P6SM SCT012 BKN160 FM260000 18018KT P6SM BKN120 BECMG 2604/2606 19012KT FM261100 18008KT P6SM BKN140 BECMG 2616/2618 34008KT SCT140 RMK NXT FCST BY 260000Z

4,000以上の空港の気象観測と天気予報(METAR報とTAF報)

利用可能な観測所は地図上に黄色い丸と赤い丸で示す。

丸の上にカーソルを重ねると観測所名を参照できる。

次にクリックすると気象観測と天気予報を参照できる。

マップの切り替え:黒色「×」印の緑ボタンをクリックして拡大、「-」印の緑ボタンをクリックして縮小、緑色の三角印をクリックして隣りの地図に切り替え


METAR-TAF: